sensor_id;sensor_type;location;lat;lon;timestamp;P1;durP1;ratioP1;P2;durP2;ratioP2
20623;SDS011;10471;42.736;23.346;2022-09-13T00:00:38;10.97;;;9.07;;
20623;SDS011;10471;42.736;23.346;2022-09-13T00:03:05;10.77;;;8.53;;
20623;SDS011;10471;42.736;23.346;2022-09-13T00:05:31;10.00;;;8.83;;
20623;SDS011;10471;42.736;23.346;2022-09-13T00:07:57;9.90;;;8.37;;
20623;SDS011;10471;42.736;23.346;2022-09-13T00:10:23;10.03;;;8.30;;
20623;SDS011;10471;42.736;23.346;2022-09-13T00:12:49;11.67;;;8.43;;
20623;SDS011;10471;42.736;23.346;2022-09-13T00:15:15;8.87;;;7.67;;
20623;SDS011;10471;42.736;23.346;2022-09-13T00:17:41;8.57;;;7.67;;
20623;SDS011;10471;42.736;23.346;2022-09-13T00:20:06;9.30;;;8.37;;
20623;SDS011;10471;42.736;23.346;2022-09-13T00:22:32;9.33;;;8.10;;
20623;SDS011;10471;42.736;23.346;2022-09-13T00:24:58;9.87;;;7.90;;
20623;SDS011;10471;42.736;23.346;2022-09-13T00:27:24;9.17;;;7.97;;
20623;SDS011;10471;42.736;23.346;2022-09-13T00:29:49;9.60;;;7.70;;
20623;SDS011;10471;42.736;23.346;2022-09-13T00:32:15;8.87;;;7.77;;
20623;SDS011;10471;42.736;23.346;2022-09-13T00:34:41;8.90;;;8.00;;
20623;SDS011;10471;42.736;23.346;2022-09-13T00:37:06;11.23;;;8.43;;
20623;SDS011;10471;42.736;23.346;2022-09-13T00:39:32;12.00;;;8.43;;
20623;SDS011;10471;42.736;23.346;2022-09-13T00:41:58;9.23;;;7.87;;
20623;SDS011;10471;42.736;23.346;2022-09-13T00:47:11;9.20;;;8.10;;
20623;SDS011;10471;42.736;23.346;2022-09-13T00:49:41;10.23;;;8.40;;
20623;SDS011;10471;42.736;23.346;2022-09-13T00:52:11;8.97;;;8.07;;
20623;SDS011;10471;42.736;23.346;2022-09-13T00:54:59;12.47;;;8.60;;
20623;SDS011;10471;42.736;23.346;2022-09-13T00:57:29;10.80;;;8.63;;
20623;SDS011;10471;42.736;23.346;2022-09-13T01:00:02;11.87;;;8.23;;
20623;SDS011;10471;42.736;23.346;2022-09-13T01:02:39;9.60;;;7.90;;
20623;SDS011;10471;42.736;23.346;2022-09-13T01:05:12;9.47;;;7.93;;
20623;SDS011;10471;42.736;23.346;2022-09-13T01:07:39;8.97;;;7.70;;
20623;SDS011;10471;42.736;23.346;2022-09-13T01:10:06;8.83;;;8.00;;
20623;SDS011;10471;42.736;23.346;2022-09-13T01:12:33;9.43;;;8.43;;
20623;SDS011;10471;42.736;23.346;2022-09-13T01:15:04;11.33;;;8.83;;
20623;SDS011;10471;42.736;23.346;2022-09-13T01:17:32;9.83;;;8.00;;
20623;SDS011;10471;42.736;23.346;2022-09-13T01:19:59;9.20;;;7.90;;
20623;SDS011;10471;42.736;23.346;2022-09-13T01:31:07;8.27;;;7.23;;
20623;SDS011;10471;42.736;23.346;2022-09-13T01:33:53;9.60;;;7.80;;
20623;SDS011;10471;42.736;23.346;2022-09-13T01:43:59;7.30;;;6.43;;
20623;SDS011;10471;42.736;23.346;2022-09-13T01:46:38;8.00;;;6.90;;
20623;SDS011;10471;42.736;23.346;2022-09-13T01:49:27;9.80;;;7.57;;
20623;SDS011;10471;42.736;23.346;2022-09-13T01:52:02;10.10;;;6.87;;
20623;SDS011;10471;42.736;23.346;2022-09-13T01:58:09;10.07;;;7.33;;
20623;SDS011;10471;42.736;23.346;2022-09-13T02:01:13;8.63;;;7.47;;
20623;SDS011;10471;42.736;23.346;2022-09-13T02:06:55;9.83;;;7.87;;
20623;SDS011;10471;42.736;23.346;2022-09-13T02:09:29;9.80;;;6.80;;
20623;SDS011;10471;42.736;23.346;2022-09-13T02:15:15;8.17;;;7.07;;
20623;SDS011;10471;42.736;23.346;2022-09-13T02:17:46;10.07;;;7.47;;
20623;SDS011;10471;42.736;23.346;2022-09-13T02:20:17;8.40;;;7.07;;
20623;SDS011;10471;42.736;23.346;2022-09-13T02:22:49;9.47;;;7.50;;
20623;SDS011;10471;42.736;23.346;2022-09-13T02:25:18;7.80;;;6.97;;
20623;SDS011;10471;42.736;23.346;2022-09-13T02:27:47;11.20;;;7.47;;
20623;SDS011;10471;42.736;23.346;2022-09-13T02:30:15;9.60;;;7.43;;
20623;SDS011;10471;42.736;23.346;2022-09-13T02:33:25;8.90;;;7.33;;
20623;SDS011;10471;42.736;23.346;2022-09-13T02:35:59;8.83;;;7.87;;
20623;SDS011;10471;42.736;23.346;2022-09-13T02:38:30;10.63;;;7.60;;
20623;SDS011;10471;42.736;23.346;2022-09-13T02:41:01;9.30;;;8.23;;
20623;SDS011;10471;42.736;23.346;2022-09-13T02:49:53;10.67;;;8.67;;
20623;SDS011;10471;42.736;23.346;2022-09-13T03:00:00;11.70;;;9.70;;
20623;SDS011;10471;42.736;23.346;2022-09-13T03:02:27;11.83;;;9.33;;
20623;SDS011;10471;42.736;23.346;2022-09-13T03:04:57;13.23;;;9.30;;
20623;SDS011;10471;42.736;23.346;2022-09-13T03:07:26;13.67;;;9.70;;
20623;SDS011;10471;42.736;23.346;2022-09-13T03:09:53;14.60;;;9.50;;
20623;SDS011;10471;42.736;23.346;2022-09-13T03:26:24;14.13;;;9.73;;
20623;SDS011;10471;42.736;23.346;2022-09-13T03:29:05;14.47;;;10.33;;
20623;SDS011;10471;42.736;23.346;2022-09-13T03:37:06;12.40;;;9.67;;
20623;SDS011;10471;42.736;23.346;2022-09-13T03:39:58;11.33;;;9.67;;
20623;SDS011;10471;42.736;23.346;2022-09-13T03:45:23;11.80;;;9.77;;
20623;SDS011;10471;42.736;23.346;2022-09-13T03:47:52;13.63;;;9.97;;
20623;SDS011;10471;42.736;23.346;2022-09-13T03:50:20;14.13;;;10.83;;
20623;SDS011;10471;42.736;23.346;2022-09-13T03:52:49;13.30;;;10.33;;
20623;SDS011;10471;42.736;23.346;2022-09-13T03:55:19;14.87;;;9.87;;
20623;SDS011;10471;42.736;23.346;2022-09-13T03:57:45;21.20;;;10.83;;
20623;SDS011;10471;42.736;23.346;2022-09-13T04:00:11;15.90;;;10.30;;
20623;SDS011;10471;42.736;23.346;2022-09-13T04:02:37;17.47;;;9.97;;
20623;SDS011;10471;42.736;23.346;2022-09-13T04:05:03;19.57;;;10.37;;
20623;SDS011;10471;42.736;23.346;2022-09-13T04:07:28;16.83;;;10.47;;
20623;SDS011;10471;42.736;23.346;2022-09-13T04:09:54;13.80;;;10.50;;
20623;SDS011;10471;42.736;23.346;2022-09-13T04:12:20;16.67;;;10.23;;
20623;SDS011;10471;42.736;23.346;2022-09-13T04:14:45;16.27;;;10.23;;
20623;SDS011;10471;42.736;23.346;2022-09-13T04:17:11;15.23;;;10.67;;
20623;SDS011;10471;42.736;23.346;2022-09-13T04:19:37;14.37;;;10.73;;
20623;SDS011;10471;42.736;23.346;2022-09-13T04:22:02;16.80;;;11.23;;
20623;SDS011;10471;42.736;23.346;2022-09-13T04:24:28;14.83;;;10.67;;
20623;SDS011;10471;42.736;23.346;2022-09-13T04:26:55;20.30;;;11.20;;
20623;SDS011;10471;42.736;23.346;2022-09-13T04:29:21;13.93;;;10.30;;
20623;SDS011;10471;42.736;23.346;2022-09-13T04:31:49;18.83;;;11.17;;
20623;SDS011;10471;42.736;23.346;2022-09-13T04:34:16;23.23;;;11.23;;
20623;SDS011;10471;42.736;23.346;2022-09-13T04:36:47;18.20;;;11.70;;
20623;SDS011;10471;42.736;23.346;2022-09-13T04:39:13;21.07;;;11.63;;
20623;SDS011;10471;42.736;23.346;2022-09-13T04:41:39;19.53;;;11.43;;
20623;SDS011;10471;42.736;23.346;2022-09-13T04:44:05;21.97;;;12.27;;
20623;SDS011;10471;42.736;23.346;2022-09-13T04:46:30;23.30;;;11.47;;
20623;SDS011;10471;42.736;23.346;2022-09-13T04:48:56;16.13;;;11.17;;
20623;SDS011;10471;42.736;23.346;2022-09-13T04:51:21;20.23;;;11.57;;
20623;SDS011;10471;42.736;23.346;2022-09-13T04:53:54;14.57;;;10.60;;
20623;SDS011;10471;42.736;23.346;2022-09-13T04:56:21;20.47;;;11.50;;
20623;SDS011;10471;42.736;23.346;2022-09-13T04:58:50;15.67;;;10.90;;
20623;SDS011;10471;42.736;23.346;2022-09-13T05:01:16;17.53;;;11.37;;
20623;SDS011;10471;42.736;23.346;2022-09-13T05:03:42;19.80;;;11.57;;
20623;SDS011;10471;42.736;23.346;2022-09-13T05:06:09;21.73;;;11.97;;
20623;SDS011;10471;42.736;23.346;2022-09-13T05:08:37;18.43;;;11.40;;
20623;SDS011;10471;42.736;23.346;2022-09-13T05:11:03;15.00;;;9.50;;
20623;SDS011;10471;42.736;23.346;2022-09-13T05:13:30;14.13;;;8.93;;
20623;SDS011;10471;42.736;23.346;2022-09-13T05:15:56;11.33;;;7.90;;
20623;SDS011;10471;42.736;23.346;2022-09-13T05:18:26;14.73;;;9.00;;
20623;SDS011;10471;42.736;23.346;2022-09-13T05:20:56;12.40;;;7.70;;
20623;SDS011;10471;42.736;23.346;2022-09-13T05:23:23;13.23;;;8.63;;
20623;SDS011;10471;42.736;23.346;2022-09-13T05:25:52;13.63;;;8.60;;
20623;SDS011;10471;42.736;23.346;2022-09-13T05:28:22;11.27;;;7.67;;
20623;SDS011;10471;42.736;23.346;2022-09-13T05:30:57;15.40;;;7.83;;
20623;SDS011;10471;42.736;23.346;2022-09-13T05:33:25;8.50;;;7.50;;
20623;SDS011;10471;42.736;23.346;2022-09-13T05:35:51;12.83;;;7.80;;
20623;SDS011;10471;42.736;23.346;2022-09-13T05:38:17;9.20;;;7.00;;
20623;SDS011;10471;42.736;23.346;2022-09-13T05:40:43;7.57;;;6.13;;
20623;SDS011;10471;42.736;23.346;2022-09-13T05:43:08;8.57;;;6.47;;
20623;SDS011;10471;42.736;23.346;2022-09-13T05:45:33;12.83;;;6.30;;
20623;SDS011;10471;42.736;23.346;2022-09-13T05:47:59;11.13;;;5.93;;
20623;SDS011;10471;42.736;23.346;2022-09-13T05:50:24;7.87;;;5.77;;
20623;SDS011;10471;42.736;23.346;2022-09-13T05:52:53;7.40;;;5.40;;
20623;SDS011;10471;42.736;23.346;2022-09-13T05:55:19;10.60;;;6.33;;
20623;SDS011;10471;42.736;23.346;2022-09-13T05:57:46;6.17;;;5.43;;
20623;SDS011;10471;42.736;23.346;2022-09-13T06:00:12;8.20;;;5.20;;
20623;SDS011;10471;42.736;23.346;2022-09-13T06:02:38;8.37;;;5.47;;
20623;SDS011;10471;42.736;23.346;2022-09-13T06:05:04;6.70;;;5.30;;
20623;SDS011;10471;42.736;23.346;2022-09-13T06:07:30;7.17;;;5.53;;
20623;SDS011;10471;42.736;23.346;2022-09-13T06:09:55;9.47;;;5.70;;
20623;SDS011;10471;42.736;23.346;2022-09-13T06:12:22;9.93;;;5.53;;
20623;SDS011;10471;42.736;23.346;2022-09-13T06:14:47;6.63;;;5.33;;
20623;SDS011;10471;42.736;23.346;2022-09-13T06:17:13;7.37;;;5.00;;
20623;SDS011;10471;42.736;23.346;2022-09-13T06:19:39;8.57;;;5.30;;
20623;SDS011;10471;42.736;23.346;2022-09-13T06:22:04;8.57;;;5.07;;
20623;SDS011;10471;42.736;23.346;2022-09-13T06:24:30;8.47;;;4.83;;
20623;SDS011;10471;42.736;23.346;2022-09-13T06:26:55;6.80;;;4.77;;
20623;SDS011;10471;42.736;23.346;2022-09-13T06:29:20;11.30;;;5.30;;
20623;SDS011;10471;42.736;23.346;2022-09-13T06:31:46;8.13;;;4.47;;
20623;SDS011;10471;42.736;23.346;2022-09-13T06:34:11;7.70;;;4.97;;
20623;SDS011;10471;42.736;23.346;2022-09-13T06:36:41;9.90;;;5.27;;
20623;SDS011;10471;42.736;23.346;2022-09-13T06:39:07;6.63;;;4.97;;
20623;SDS011;10471;42.736;23.346;2022-09-13T06:41:32;6.90;;;5.00;;
20623;SDS011;10471;42.736;23.346;2022-09-13T06:43:58;7.97;;;5.20;;
20623;SDS011;10471;42.736;23.346;2022-09-13T06:46:28;9.97;;;5.47;;
20623;SDS011;10471;42.736;23.346;2022-09-13T06:48:59;9.90;;;5.20;;
20623;SDS011;10471;42.736;23.346;2022-09-13T06:51:27;12.47;;;4.73;;
20623;SDS011;10471;42.736;23.346;2022-09-13T06:53:54;9.20;;;5.30;;
20623;SDS011;10471;42.736;23.346;2022-09-13T06:58:56;6.50;;;4.10;;
20623;SDS011;10471;42.736;23.346;2022-09-13T07:01:24;7.70;;;4.50;;
20623;SDS011;10471;42.736;23.346;2022-09-13T07:04:02;7.37;;;4.43;;
20623;SDS011;10471;42.736;23.346;2022-09-13T07:06:28;5.80;;;4.23;;
20623;SDS011;10471;42.736;23.346;2022-09-13T07:08:57;7.07;;;4.20;;
20623;SDS011;10471;42.736;23.346;2022-09-13T07:11:24;6.37;;;4.27;;
20623;SDS011;10471;42.736;23.346;2022-09-13T07:13:54;5.07;;;4.13;;
20623;SDS011;10471;42.736;23.346;2022-09-13T07:16:22;4.93;;;3.60;;
20623;SDS011;10471;42.736;23.346;2022-09-13T07:18:57;5.93;;;3.90;;
20623;SDS011;10471;42.736;23.346;2022-09-13T07:21:31;5.07;;;4.20;;
20623;SDS011;10471;42.736;23.346;2022-09-13T07:23:57;6.03;;;4.23;;
20623;SDS011;10471;42.736;23.346;2022-09-13T07:26:23;6.13;;;4.17;;
20623;SDS011;10471;42.736;23.346;2022-09-13T07:28:52;5.03;;;3.87;;
20623;SDS011;10471;42.736;23.346;2022-09-13T07:31:20;6.00;;;3.77;;
20623;SDS011;10471;42.736;23.346;2022-09-13T07:33:53;5.00;;;4.20;;
20623;SDS011;10471;42.736;23.346;2022-09-13T07:36:20;4.40;;;3.80;;
20623;SDS011;10471;42.736;23.346;2022-09-13T07:38:45;8.57;;;4.10;;
20623;SDS011;10471;42.736;23.346;2022-09-13T07:41:12;4.80;;;3.80;;
20623;SDS011;10471;42.736;23.346;2022-09-13T07:43:40;5.67;;;4.03;;
20623;SDS011;10471;42.736;23.346;2022-09-13T07:46:06;7.80;;;3.93;;
20623;SDS011;10471;42.736;23.346;2022-09-13T07:48:34;5.03;;;3.70;;
20623;SDS011;10471;42.736;23.346;2022-09-13T07:51:08;3.87;;;3.43;;
20623;SDS011;10471;42.736;23.346;2022-09-13T07:53:35;5.63;;;3.17;;
20623;SDS011;10471;42.736;23.346;2022-09-13T07:56:03;3.60;;;3.30;;
20623;SDS011;10471;42.736;23.346;2022-09-13T07:58:33;6.13;;;3.40;;
20623;SDS011;10471;42.736;23.346;2022-09-13T08:01:02;3.43;;;2.93;;
20623;SDS011;10471;42.736;23.346;2022-09-13T08:03:28;3.30;;;2.70;;
20623;SDS011;10471;42.736;23.346;2022-09-13T08:05:54;5.17;;;3.13;;
20623;SDS011;10471;42.736;23.346;2022-09-13T08:08:19;4.67;;;2.97;;
20623;SDS011;10471;42.736;23.346;2022-09-13T08:10:45;3.67;;;3.13;;
20623;SDS011;10471;42.736;23.346;2022-09-13T08:13:10;5.17;;;3.30;;
20623;SDS011;10471;42.736;23.346;2022-09-13T08:15:36;4.73;;;3.00;;
20623;SDS011;10471;42.736;23.346;2022-09-13T08:18:01;3.67;;;3.07;;
20623;SDS011;10471;42.736;23.346;2022-09-13T08:20:26;5.77;;;3.00;;
20623;SDS011;10471;42.736;23.346;2022-09-13T08:22:52;3.83;;;2.80;;
20623;SDS011;10471;42.736;23.346;2022-09-13T08:25:17;2.83;;;2.60;;
20623;SDS011;10471;42.736;23.346;2022-09-13T08:27:42;4.97;;;3.10;;
20623;SDS011;10471;42.736;23.346;2022-09-13T08:30:08;5.50;;;2.77;;
20623;SDS011;10471;42.736;23.346;2022-09-13T08:32:34;4.07;;;2.60;;
20623;SDS011;10471;42.736;23.346;2022-09-13T08:34:59;4.27;;;2.90;;
20623;SDS011;10471;42.736;23.346;2022-09-13T08:37:25;4.70;;;2.90;;
20623;SDS011;10471;42.736;23.346;2022-09-13T08:39:51;3.40;;;2.80;;
20623;SDS011;10471;42.736;23.346;2022-09-13T08:42:32;5.70;;;3.17;;
20623;SDS011;10471;42.736;23.346;2022-09-13T08:45:10;2.90;;;2.53;;
20623;SDS011;10471;42.736;23.346;2022-09-13T08:47:40;4.73;;;3.03;;
20623;SDS011;10471;42.736;23.346;2022-09-13T08:56:00;4.63;;;2.80;;
20623;SDS011;10471;42.736;23.346;2022-09-13T09:04:25;2.67;;;2.47;;
20623;SDS011;10471;42.736;23.346;2022-09-13T09:06:49;2.70;;;2.33;;
20623;SDS011;10471;42.736;23.346;2022-09-13T09:09:15;3.30;;;1.87;;
20623;SDS011;10471;42.736;23.346;2022-09-13T09:11:47;1.70;;;1.60;;
20623;SDS011;10471;42.736;23.346;2022-09-13T09:14:17;3.17;;;2.13;;
20623;SDS011;10471;42.736;23.346;2022-09-13T09:16:56;2.40;;;2.10;;
20623;SDS011;10471;42.736;23.346;2022-09-13T09:22:00;3.77;;;2.37;;
20623;SDS011;10471;42.736;23.346;2022-09-13T09:24:28;2.63;;;2.40;;
20623;SDS011;10471;42.736;23.346;2022-09-13T09:27:00;4.47;;;2.47;;
20623;SDS011;10471;42.736;23.346;2022-09-13T09:29:28;3.80;;;2.20;;
20623;SDS011;10471;42.736;23.346;2022-09-13T09:32:03;2.20;;;2.00;;
20623;SDS011;10471;42.736;23.346;2022-09-13T09:34:43;2.80;;;2.37;;
20623;SDS011;10471;42.736;23.346;2022-09-13T09:37:30;3.00;;;2.07;;
20623;SDS011;10471;42.736;23.346;2022-09-13T09:39:58;2.47;;;2.20;;
20623;SDS011;10471;42.736;23.346;2022-09-13T09:42:31;3.83;;;2.33;;
20623;SDS011;10471;42.736;23.346;2022-09-13T09:45:05;4.67;;;2.20;;
20623;SDS011;10471;42.736;23.346;2022-09-13T09:47:43;3.57;;;2.40;;
20623;SDS011;10471;42.736;23.346;2022-09-13T09:55:25;3.40;;;2.77;;
20623;SDS011;10471;42.736;23.346;2022-09-13T09:58:02;3.53;;;2.47;;
20623;SDS011;10471;42.736;23.346;2022-09-13T10:00:34;3.47;;;2.80;;
20623;SDS011;10471;42.736;23.346;2022-09-13T10:03:03;2.63;;;2.43;;
20623;SDS011;10471;42.736;23.346;2022-09-13T10:05:29;4.43;;;2.80;;
20623;SDS011;10471;42.736;23.346;2022-09-13T10:08:03;4.97;;;3.27;;
20623;SDS011;10471;42.736;23.346;2022-09-13T10:10:38;7.93;;;2.70;;
20623;SDS011;10471;42.736;23.346;2022-09-13T10:13:07;4.57;;;2.57;;
20623;SDS011;10471;42.736;23.346;2022-09-13T10:15:55;4.00;;;2.40;;
20623;SDS011;10471;42.736;23.346;2022-09-13T10:18:28;2.93;;;2.63;;
20623;SDS011;10471;42.736;23.346;2022-09-13T10:23:47;2.30;;;2.07;;
20623;SDS011;10471;42.736;23.346;2022-09-13T10:26:20;4.23;;;2.47;;
20623;SDS011;10471;42.736;23.346;2022-09-13T10:29:07;3.63;;;2.07;;
20623;SDS011;10471;42.736;23.346;2022-09-13T10:31:39;3.17;;;2.30;;
20623;SDS011;10471;42.736;23.346;2022-09-13T10:34:12;2.80;;;2.30;;
20623;SDS011;10471;42.736;23.346;2022-09-13T10:39:34;3.63;;;2.20;;
20623;SDS011;10471;42.736;23.346;2022-09-13T10:42:01;2.50;;;2.30;;
20623;SDS011;10471;42.736;23.346;2022-09-13T10:44:38;3.00;;;2.30;;
20623;SDS011;10471;42.736;23.346;2022-09-13T10:47:13;2.20;;;2.00;;
20623;SDS011;10471;42.736;23.346;2022-09-13T10:49:47;2.40;;;2.20;;
20623;SDS011;10471;42.736;23.346;2022-09-13T10:57:45;3.10;;;2.70;;
20623;SDS011;10471;42.736;23.346;2022-09-13T11:00:13;4.07;;;2.40;;
20623;SDS011;10471;42.736;23.346;2022-09-13T11:13:35;3.07;;;2.30;;
20623;SDS011;10471;42.736;23.346;2022-09-13T11:21:55;2.53;;;2.33;;
20623;SDS011;10471;42.736;23.346;2022-09-13T11:29:34;4.87;;;2.60;;
20623;SDS011;10471;42.736;23.346;2022-09-13T11:35:02;2.70;;;2.50;;
20623;SDS011;10471;42.736;23.346;2022-09-13T11:48:10;2.00;;;1.83;;
20623;SDS011;10471;42.736;23.346;2022-09-13T11:56:07;4.17;;;2.00;;
20623;SDS011;10471;42.736;23.346;2022-09-13T12:01:29;2.57;;;2.00;;
20623;SDS011;10471;42.736;23.346;2022-09-13T12:06:41;4.80;;;2.30;;
20623;SDS011;10471;42.736;23.346;2022-09-13T12:09:18;3.30;;;2.20;;
20623;SDS011;10471;42.736;23.346;2022-09-13T12:11:47;2.77;;;1.80;;
20623;SDS011;10471;42.736;23.346;2022-09-13T12:14:20;2.13;;;1.93;;
20623;SDS011;10471;42.736;23.346;2022-09-13T12:16:51;3.23;;;1.90;;
20623;SDS011;10471;42.736;23.346;2022-09-13T12:19:34;2.60;;;2.40;;
20623;SDS011;10471;42.736;23.346;2022-09-13T12:22:02;3.20;;;1.90;;
20623;SDS011;10471;42.736;23.346;2022-09-13T12:24:33;4.03;;;1.93;;
20623;SDS011;10471;42.736;23.346;2022-09-13T12:32:43;2.20;;;1.80;;
20623;SDS011;10471;42.736;23.346;2022-09-13T12:52:55;2.93;;;2.27;;
20623;SDS011;10471;42.736;23.346;2022-09-13T12:58:41;4.13;;;2.10;;
20623;SDS011;10471;42.736;23.346;2022-09-13T13:01:29;5.20;;;2.10;;
20623;SDS011;10471;42.736;23.346;2022-09-13T13:12:07;2.50;;;1.90;;
20623;SDS011;10471;42.736;23.346;2022-09-13T13:23:26;4.67;;;2.13;;
20623;SDS011;10471;42.736;23.346;2022-09-13T13:31:08;4.73;;;3.50;;
20623;SDS011;10471;42.736;23.346;2022-09-13T13:33:49;5.50;;;2.33;;
20623;SDS011;10471;42.736;23.346;2022-09-13T13:36:26;3.10;;;2.20;;
20623;SDS011;10471;42.736;23.346;2022-09-13T13:38:53;8.57;;;3.00;;
20623;SDS011;10471;42.736;23.346;2022-09-13T13:41:35;7.23;;;2.47;;
20623;SDS011;10471;42.736;23.346;2022-09-13T13:46:45;3.60;;;2.67;;
20623;SDS011;10471;42.736;23.346;2022-09-13T13:57:30;7.00;;;2.50;;
20623;SDS011;10471;42.736;23.346;2022-09-13T14:00:14;4.23;;;2.37;;
20623;SDS011;10471;42.736;23.346;2022-09-13T14:11:12;3.87;;;2.20;;
20623;SDS011;10471;42.736;23.346;2022-09-13T14:19:28;4.73;;;2.47;;
20623;SDS011;10471;42.736;23.346;2022-09-13T14:22:12;4.67;;;2.40;;
20623;SDS011;10471;42.736;23.346;2022-09-13T14:24:50;9.67;;;2.80;;
20623;SDS011;10471;42.736;23.346;2022-09-13T14:27:24;3.93;;;2.43;;
20623;SDS011;10471;42.736;23.346;2022-09-13T14:29:52;3.80;;;2.50;;
20623;SDS011;10471;42.736;23.346;2022-09-13T14:32:21;5.27;;;2.70;;
20623;SDS011;10471;42.736;23.346;2022-09-13T14:34:59;7.90;;;2.70;;
20623;SDS011;10471;42.736;23.346;2022-09-13T14:37:33;3.20;;;2.33;;
20623;SDS011;10471;42.736;23.346;2022-09-13T14:42:39;4.33;;;2.30;;
20623;SDS011;10471;42.736;23.346;2022-09-13T14:45:13;3.50;;;2.50;;
20623;SDS011;10471;42.736;23.346;2022-09-13T14:50:30;3.00;;;2.27;;
20623;SDS011;10471;42.736;23.346;2022-09-13T14:53:05;3.93;;;2.67;;
20623;SDS011;10471;42.736;23.346;2022-09-13T14:55:41;2.77;;;2.57;;
20623;SDS011;10471;42.736;23.346;2022-09-13T14:58:15;4.13;;;2.23;;
20623;SDS011;10471;42.736;23.346;2022-09-13T15:00:48;3.17;;;2.30;;
20623;SDS011;10471;42.736;23.346;2022-09-13T15:03:17;6.23;;;2.93;;
20623;SDS011;10471;42.736;23.346;2022-09-13T15:05:49;6.77;;;2.60;;
20623;SDS011;10471;42.736;23.346;2022-09-13T15:10:57;2.47;;;2.20;;
20623;SDS011;10471;42.736;23.346;2022-09-13T15:13:23;3.40;;;2.20;;
20623;SDS011;10471;42.736;23.346;2022-09-13T15:15:49;2.53;;;2.00;;
20623;SDS011;10471;42.736;23.346;2022-09-13T15:26:21;2.87;;;2.57;;
20623;SDS011;10471;42.736;23.346;2022-09-13T15:31:22;4.43;;;2.30;;
20623;SDS011;10471;42.736;23.346;2022-09-13T15:34:11;4.93;;;2.83;;
20623;SDS011;10471;42.736;23.346;2022-09-13T15:36:48;4.03;;;2.60;;
20623;SDS011;10471;42.736;23.346;2022-09-13T15:39:26;3.10;;;2.50;;
20623;SDS011;10471;42.736;23.346;2022-09-13T15:41:55;2.80;;;2.40;;
20623;SDS011;10471;42.736;23.346;2022-09-13T15:44:23;2.80;;;2.27;;
20623;SDS011;10471;42.736;23.346;2022-09-13T15:46:50;4.23;;;2.90;;
20623;SDS011;10471;42.736;23.346;2022-09-13T15:49:22;4.70;;;2.40;;
20623;SDS011;10471;42.736;23.346;2022-09-13T15:51:54;2.90;;;2.50;;
20623;SDS011;10471;42.736;23.346;2022-09-13T15:54:21;6.57;;;2.80;;
20623;SDS011;10471;42.736;23.346;2022-09-13T15:56:47;4.73;;;3.07;;
20623;SDS011;10471;42.736;23.346;2022-09-13T15:59:16;4.43;;;2.90;;
20623;SDS011;10471;42.736;23.346;2022-09-13T16:01:44;3.33;;;2.90;;
20623;SDS011;10471;42.736;23.346;2022-09-13T16:04:12;3.90;;;2.60;;
20623;SDS011;10471;42.736;23.346;2022-09-13T16:06:37;2.93;;;2.63;;
20623;SDS011;10471;42.736;23.346;2022-09-13T16:09:22;3.20;;;2.90;;
20623;SDS011;10471;42.736;23.346;2022-09-13T16:11:49;5.50;;;3.20;;
20623;SDS011;10471;42.736;23.346;2022-09-13T16:14:16;2.93;;;2.70;;
20623;SDS011;10471;42.736;23.346;2022-09-13T16:16:43;4.17;;;2.97;;
20623;SDS011;10471;42.736;23.346;2022-09-13T16:19:12;3.20;;;2.70;;
20623;SDS011;10471;42.736;23.346;2022-09-13T16:21:39;3.40;;;3.10;;
20623;SDS011;10471;42.736;23.346;2022-09-13T16:24:05;3.20;;;2.90;;
20623;SDS011;10471;42.736;23.346;2022-09-13T16:26:30;6.27;;;3.67;;
20623;SDS011;10471;42.736;23.346;2022-09-13T16:28:58;4.03;;;3.13;;
20623;SDS011;10471;42.736;23.346;2022-09-13T16:31:23;4.33;;;3.23;;
20623;SDS011;10471;42.736;23.346;2022-09-13T16:33:48;4.73;;;3.47;;
20623;SDS011;10471;42.736;23.346;2022-09-13T16:36:14;4.70;;;3.67;;
20623;SDS011;10471;42.736;23.346;2022-09-13T16:38:39;3.53;;;3.23;;
20623;SDS011;10471;42.736;23.346;2022-09-13T16:41:05;4.30;;;3.20;;
20623;SDS011;10471;42.736;23.346;2022-09-13T16:43:30;4.00;;;3.43;;
20623;SDS011;10471;42.736;23.346;2022-09-13T16:45:57;4.33;;;3.50;;
20623;SDS011;10471;42.736;23.346;2022-09-13T16:48:23;6.77;;;3.80;;
20623;SDS011;10471;42.736;23.346;2022-09-13T16:50:48;4.13;;;3.73;;
20623;SDS011;10471;42.736;23.346;2022-09-13T16:53:14;4.07;;;3.40;;
20623;SDS011;10471;42.736;23.346;2022-09-13T16:55:39;4.23;;;3.53;;
20623;SDS011;10471;42.736;23.346;2022-09-13T16:58:05;4.57;;;3.80;;
20623;SDS011;10471;42.736;23.346;2022-09-13T17:00:30;4.40;;;3.80;;
20623;SDS011;10471;42.736;23.346;2022-09-13T17:02:55;5.20;;;3.70;;
20623;SDS011;10471;42.736;23.346;2022-09-13T17:05:22;6.03;;;3.83;;
20623;SDS011;10471;42.736;23.346;2022-09-13T17:07:49;7.10;;;3.97;;
20623;SDS011;10471;42.736;23.346;2022-09-13T17:10:14;5.43;;;4.30;;
20623;SDS011;10471;42.736;23.346;2022-09-13T17:12:40;6.43;;;4.00;;
20623;SDS011;10471;42.736;23.346;2022-09-13T17:15:05;4.27;;;3.67;;
20623;SDS011;10471;42.736;23.346;2022-09-13T17:17:31;5.50;;;4.10;;
20623;SDS011;10471;42.736;23.346;2022-09-13T17:20:07;8.17;;;4.40;;
20623;SDS011;10471;42.736;23.346;2022-09-13T17:22:35;4.83;;;4.27;;
20623;SDS011;10471;42.736;23.346;2022-09-13T17:25:01;6.10;;;4.00;;
20623;SDS011;10471;42.736;23.346;2022-09-13T17:27:27;5.20;;;4.30;;
20623;SDS011;10471;42.736;23.346;2022-09-13T17:29:53;5.33;;;4.33;;
20623;SDS011;10471;42.736;23.346;2022-09-13T17:32:18;4.63;;;4.23;;
20623;SDS011;10471;42.736;23.346;2022-09-13T17:34:44;7.63;;;4.50;;
20623;SDS011;10471;42.736;23.346;2022-09-13T17:37:10;5.57;;;3.90;;
20623;SDS011;10471;42.736;23.346;2022-09-13T17:39:35;6.70;;;4.30;;
20623;SDS011;10471;42.736;23.346;2022-09-13T17:42:00;8.20;;;4.63;;
20623;SDS011;10471;42.736;23.346;2022-09-13T17:44:26;5.07;;;4.57;;
20623;SDS011;10471;42.736;23.346;2022-09-13T17:46:52;6.40;;;4.63;;
20623;SDS011;10471;42.736;23.346;2022-09-13T17:49:17;7.40;;;5.83;;
20623;SDS011;10471;42.736;23.346;2022-09-13T17:51:42;6.60;;;4.97;;
20623;SDS011;10471;42.736;23.346;2022-09-13T17:54:09;6.87;;;4.80;;
20623;SDS011;10471;42.736;23.346;2022-09-13T17:56:36;5.93;;;4.87;;
20623;SDS011;10471;42.736;23.346;2022-09-13T18:01:41;7.63;;;6.50;;
20623;SDS011;10471;42.736;23.346;2022-09-13T18:04:08;8.50;;;6.33;;
20623;SDS011;10471;42.736;23.346;2022-09-13T18:06:35;7.83;;;7.00;;
20623;SDS011;10471;42.736;23.346;2022-09-13T18:09:01;6.73;;;5.90;;
20623;SDS011;10471;42.736;23.346;2022-09-13T18:11:26;8.07;;;6.03;;
20623;SDS011;10471;42.736;23.346;2022-09-13T18:13:52;6.73;;;5.30;;
20623;SDS011;10471;42.736;23.346;2022-09-13T18:16:18;9.40;;;5.73;;
20623;SDS011;10471;42.736;23.346;2022-09-13T18:18:45;8.90;;;5.90;;
20623;SDS011;10471;42.736;23.346;2022-09-13T18:21:11;7.27;;;5.73;;
20623;SDS011;10471;42.736;23.346;2022-09-13T18:23:43;7.37;;;6.60;;
20623;SDS011;10471;42.736;23.346;2022-09-13T18:26:10;7.67;;;6.50;;
20623;SDS011;10471;42.736;23.346;2022-09-13T18:28:37;6.57;;;5.30;;
20623;SDS011;10471;42.736;23.346;2022-09-13T18:31:03;9.60;;;7.40;;
20623;SDS011;10471;42.736;23.346;2022-09-13T18:33:30;8.40;;;5.83;;
20623;SDS011;10471;42.736;23.346;2022-09-13T18:36:07;7.90;;;5.30;;
20623;SDS011;10471;42.736;23.346;2022-09-13T18:38:36;7.27;;;5.73;;
20623;SDS011;10471;42.736;23.346;2022-09-13T18:41:07;7.60;;;6.63;;
20623;SDS011;10471;42.736;23.346;2022-09-13T18:43:35;9.47;;;6.77;;